NCAR-RAP Real-Time Weather Data

Output produced by METARs form (19 June 2019  11:46 UTC)
found at http://weather.rap.ucar.edu/surface/
 
KMHE 191053Z AUTO 00000KT 10SM CLR 13/11 A2985 RMK AO2 SLP104 T01330111
KMHE 190953Z AUTO 17003KT 10SM CLR 13/11 A2984 RMK AO2 SLP101 T01330111
KMHE 190853Z AUTO 09003KT 10SM CLR 13/11 A2984 RMK AO2 SLP101 T01330111 58017
KMHE 190753Z AUTO 00000KT 10SM CLR 14/12 A2987 RMK AO2 SLP108 T01390117
KMHE 190653Z AUTO 00000KT 10SM CLR 16/11 A2988 RMK AO2 SLP114 T01560111
KMHE 190553Z AUTO 00000KT 10SM CLR 15/12 A2989 RMK AO2 SLP118 60000 T01500117 10250 20144 402500111 58005
KMHE 190453Z AUTO 00000KT 10SM CLR 17/12 A2990 RMK AO2 RAE03 SLP121 P0000 T01720122
KMHE 190353Z AUTO 00000KT 10SM -RA CLR 18/11 A2991 RMK AO2 RAE00B46 SLP123 P0000 T01780111
KMHE 190253Z AUTO 00000KT 10SM -RA CLR 20/11 A2991 RMK AO2 RAB46 SLP123 P0000 60000 T02000111 55001
KMHE 190153Z AUTO 17003KT 10SM SCT065 22/11 A2990 RMK AO2 SLP121 T02170111
KMHE 190053Z AUTO 00000KT 10SM CLR 23/12 A2991 RMK AO2 SLP124 T02330117
KMHE 182353Z AUTO VRB03KT 10SM CLR 24/11 A2991 RMK AO2 SLP125 T02440111 10244 20228 56015
KMHE 182253Z AUTO 03004KT 10SM CLR 24/11 A2992 RMK AO2 SLP129 T02390111
KMHE 182153Z AUTO 03005KT 10SM CLR 24/12 A2993 RMK AO2 SLP133 T02390117
KMHE 182053Z AUTO 04008KT 340V080 10SM CLR 24/11 A2996 RMK AO2 SLP141 T02440111 58015
KMHE 181953Z AUTO 04006KT 10SM CLR 24/12 A2998 RMK AO2 SLP147 T02440117
KMHE 181853Z AUTO 05007KT 10SM FEW050 23/11 A2999 RMK AO2 SLP154 T02280111
KMHE 181753Z AUTO 03006KT 10SM CLR 23/12 A3000 RMK AO2 SLP156 T02330117 10233 20122 56011
KMHE 181653Z AUTO 06006KT 10SM CLR 23/11 A3001 RMK AO2 SLP159 T02280111
KMHE 181553Z AUTO 01007KT 340V060 10SM CLR 22/12 A3003 RMK AO2 SLP164 T02170117
KMHE 181453Z AUTO 07004KT 10SM CLR 20/12 A3004 RMK AO2 SLP168 T02000117 50001